Terminal Aerodrome Forecast
Issued by NWS

Home | Current Version | Previous Version | Text Only | Print | Product List | Glossary On
Versions: 1 2 3 4 5 6 7 8 9 10 11 12 13 14 15
000
FTUS45 KRIW 261700
TAFBPI
TAF
KBPI 261732Z 2618/2718 VRB05KT P6SM BKN090
     FM262000 VRB06G16KT P6SM VCTS SCT040CB BKN090
     FM270200 VRB06KT P6SM VCSH FEW060 BKN080
     FM270500 VRB05KT P6SM SCT080 BKN150
     FM271000 VRB05KT P6SM VCSH SCT050 BKN100=

USA.gov is the U.S. government's official web portal to all federal, state and local government web resources and services.